Time;durP1;ratioP1;P1;durP2;ratioP2;P2;SDS_P1;SDS_P2;PMS_P1;PMS_P2;Temp;Humidity;BMP_temperature;BMP_pressure;BME280_temperature;BME280_humidity;BME280_pressure;Samples;Min_cycle;Max_cycle;Signal;HPM_P1;HPM_P2
2020/12/13 00:00:25;;;;;;;1.85;1.75;;;19.70;22.90;;;;;;5055246;28;20171;-52
2020/12/13 00:02:52;;;;;;;1.98;1.88;;;19.70;22.90;;;;;;5055369;28;20152;-52
2020/12/13 00:05:17;;;;;;;1.80;1.67;;;19.60;22.90;;;;;;5054668;28;20197;-52
2020/12/13 00:07:43;;;;;;;1.87;1.70;;;19.70;23.00;;;;;;5055120;28;20239;-52
2020/12/13 00:10:09;;;;;;;2.23;2.00;;;19.60;22.90;;;;;;5054888;28;20227;-52
2020/12/13 00:12:36;;;;;;;2.03;1.83;;;19.70;23.00;;;;;;5053624;28;20257;-52
2020/12/13 00:15:04;;;;;;;2.10;1.90;;;19.60;22.90;;;;;;5055259;28;20434;-52
2020/12/13 00:17:29;;;;;;;1.80;1.70;;;19.60;22.90;;;;;;5055002;28;20159;-52
2020/12/13 00:19:55;;;;;;;2.27;2.07;;;19.60;22.90;;;;;;5053408;28;20506;-52
2020/12/13 00:22:24;;;;;;;1.73;1.60;;;19.60;22.90;;;;;;5054359;28;20155;-52
2020/12/13 00:24:53;;;;;;;2.00;1.60;;;;;;;;;;5054866;28;20195;-52
2020/12/13 00:27:19;;;;;;;2.25;1.98;;;19.70;22.50;;;;;;5054449;28;20159;-52
2020/12/13 00:29:44;;;;;;;1.77;1.67;;;19.60;22.90;;;;;;5054211;28;20162;-52
2020/12/13 00:32:10;;;;;;;1.60;1.50;;;19.60;22.90;;;;;;5054587;28;20156;-51
2020/12/13 00:34:36;;;;;;;2.37;1.80;;;19.60;22.90;;;;;;5054754;28;20151;-52
2020/12/13 00:37:02;;;;;;;2.03;1.90;;;19.60;22.90;;;;;;5054105;28;20542;-52
2020/12/13 00:39:27;;;;;;;1.97;1.87;;;19.60;22.90;;;;;;5054613;28;20194;-52
2020/12/13 00:41:54;;;;;;;2.00;1.73;;;19.60;22.90;;;;;;5054252;28;20496;-51
2020/12/13 00:44:23;;;;;;;1.67;1.58;;;19.60;22.90;;;;;;5054491;28;20206;-51
2020/12/13 00:46:49;;;;;;;2.15;1.70;;;19.60;22.80;;;;;;5054279;28;20159;-51
2020/12/13 00:49:15;;;;;;;2.10;1.90;;;19.60;22.80;;;;;;5054296;28;20622;-51
2020/12/13 00:51:41;;;;;;;2.05;1.85;;;19.60;22.90;;;;;;5052457;28;20167;-51
2020/12/13 00:54:07;;;;;;;2.23;1.70;;;19.60;22.80;;;;;;5054359;28;20598;-55
2020/12/13 00:56:32;;;;;;;1.80;1.70;;;19.60;22.90;;;;;;5054135;28;20508;-52
2020/12/13 00:58:58;;;;;;;2.07;1.87;;;19.60;22.90;;;;;;5068972;28;20178;-52
2020/12/13 01:01:24;;;;;;;2.03;1.83;;;19.60;22.90;;;;;;5073960;28;20165;-52
2020/12/13 01:03:50;;;;;;;2.53;2.27;;;19.60;22.90;;;;;;5072911;28;20154;-52
2020/12/13 01:06:25;;;;;;;1.80;1.70;;;19.60;22.90;;;;;;5073331;28;20530;-52
2020/12/13 01:08:54;;;;;;;1.58;1.48;;;19.60;22.90;;;;;;5072726;28;20252;-51
2020/12/13 01:11:22;;;;;;;2.10;1.90;;;19.60;22.90;;;;;;5072162;28;20206;-51
2020/12/13 01:13:48;;;;;;;2.05;1.92;;;19.60;22.90;;;;;;5073962;28;20299;-52
2020/12/13 01:16:16;;;;;;;1.80;1.63;;;19.60;22.90;;;;;;5073714;28;20241;-51
2020/12/13 01:18:44;;;;;;;2.10;1.90;;;19.60;23.40;;;;;;5073980;28;20180;-51
2020/12/13 01:21:18;;;;;;;1.75;1.52;;;19.60;22.90;;;;;;5055776;28;20159;-51
2020/12/13 01:23:44;;;;;;;1.77;1.65;;;19.60;22.90;;;;;;5074206;28;20510;-51
2020/12/13 01:26:14;;;;;;;2.08;1.88;;;19.60;22.90;;;;;;5073416;28;20191;-52
2020/12/13 01:28:41;;;;;;;2.05;1.70;;;19.60;22.90;;;;;;5073543;28;20196;-52
2020/12/13 01:31:06;;;;;;;1.58;1.48;;;19.60;22.90;;;;;;5072392;28;20158;-52
2020/12/13 01:33:32;;;;;;;1.87;1.70;;;19.60;22.90;;;;;;5073922;28;20606;-52
2020/12/13 01:35:59;;;;;;;2.20;1.67;;;19.60;23.50;;;;;;5073181;28;20387;-52
2020/12/13 01:38:25;;;;;;;1.90;1.80;;;19.60;22.90;;;;;;5072411;28;20617;-52
2020/12/13 01:41:00;;;;;;;2.30;2.00;;;19.60;22.90;;;;;;5073003;28;20201;-52
2020/12/13 01:43:26;;;;;;;1.88;1.77;;;19.60;22.90;;;;;;5072605;28;20173;-52
2020/12/13 01:45:54;;;;;;;2.30;2.10;;;19.60;22.90;;;;;;5073761;28;20252;-52
2020/12/13 01:48:24;;;;;;;2.33;1.95;;;19.60;22.90;;;;;;5073844;28;20189;-51
2020/12/13 01:53:29;;;;;;;2.10;1.90;;;19.60;22.90;;;;;;5073440;28;20491;-52
2020/12/13 01:55:58;;;;;;;1.70;1.60;;;19.70;23.00;;;;;;5073414;28;20160;-52
2020/12/13 01:58:33;;;;;;;1.75;1.65;;;19.60;22.90;;;;;;5073392;28;20273;-51
2020/12/13 02:01:01;;;;;;;1.58;1.48;;;19.60;22.90;;;;;;5073344;28;20158;-51
2020/12/13 02:03:39;;;;;;;3.88;2.30;;;19.60;22.90;;;;;;5073435;28;20158;-51
2020/12/13 02:06:22;;;;;;;1.95;1.85;;;19.60;22.90;;;;;;5072775;28;20244;-51
2020/12/13 02:08:52;;;;;;;2.08;1.80;;;19.60;22.90;;;;;;5073286;28;20208;-51
2020/12/13 02:11:19;;;;;;;1.90;1.80;;;19.60;22.90;;;;;;5078265;28;20205;-51
2020/12/13 02:13:48;;;;;;;1.70;1.60;;;19.60;22.90;;;;;;5093723;28;20154;-51
2020/12/13 02:16:15;;;;;;;1.70;1.60;;;19.60;22.90;;;;;;5093336;28;20208;-51
2020/12/13 02:18:42;;;;;;;1.50;1.40;;;19.60;22.90;;;;;;5093571;28;20200;-52
2020/12/13 02:21:10;;;;;;;1.58;1.48;;;19.60;22.90;;;;;;5092891;28;20539;-52
2020/12/13 02:23:39;;;;;;;2.30;2.10;;;19.60;22.90;;;;;;5093301;28;20184;-51
2020/12/13 02:26:11;;;;;;;2.33;2.13;;;19.60;22.90;;;;;;5093231;28;20664;-51
2020/12/13 02:28:37;;;;;;;1.73;1.63;;;19.60;23.00;;;;;;5093433;28;20615;-51
2020/12/13 02:31:04;;;;;;;1.90;1.80;;;19.60;22.90;;;;;;5075162;28;20177;-51
2020/12/13 02:33:30;;;;;;;2.03;1.83;;;19.60;22.90;;;;;;5075421;28;20174;-51
2020/12/13 02:35:56;;;;;;;1.45;1.35;;;19.60;22.90;;;;;;5057861;28;20269;-51
2020/12/13 02:38:21;;;;;;;2.17;1.80;;;19.60;22.90;;;;;;5093137;28;20245;-51
2020/12/13 02:40:47;;;;;;;1.77;1.67;;;19.60;23.00;;;;;;5093199;28;20606;-51
2020/12/13 02:43:13;;;;;;;2.13;1.93;;;19.60;22.90;;;;;;5075315;28;20170;-51
2020/12/13 02:45:38;;;;;;;2.20;1.70;;;19.60;22.90;;;;;;5092982;28;20193;-51
2020/12/13 02:48:04;;;;;;;2.17;1.97;;;19.60;22.90;;;;;;5093250;28;20513;-52
2020/12/13 02:50:31;;;;;;;1.80;1.70;;;19.60;23.00;;;;;;5092667;28;20672;-52
2020/12/13 02:52:58;;;;;;;2.45;1.50;;;19.60;22.90;;;;;;5076667;28;20150;-52
2020/12/13 02:55:24;;;;;;;2.78;2.00;;;19.60;23.00;;;;;;5096664;28;20208;-52
2020/12/13 02:57:52;;;;;;;1.85;1.60;;;19.60;22.90;;;;;;5078520;28;20182;-52
2020/12/13 03:00:18;;;;;;;1.70;1.60;;;19.60;23.00;;;;;;5096517;28;20641;-52
2020/12/13 03:02:44;;;;;;;1.53;1.43;;;19.60;23.00;;;;;;5078622;28;20177;-52
2020/12/13 03:05:10;;;;;;;1.70;1.60;;;19.60;23.00;;;;;;5096414;28;20186;-52
2020/12/13 03:07:35;;;;;;;1.80;1.70;;;19.60;22.90;;;;;;5078015;28;20146;-52
2020/12/13 03:10:01;;;;;;;1.60;1.50;;;19.60;23.00;;;;;;5096561;28;20609;-51
2020/12/13 03:12:27;;;;;;;1.60;1.50;;;19.60;22.90;;;;;;5096250;28;20688;-51
2020/12/13 03:14:55;;;;;;;1.93;1.73;;;19.60;22.90;;;;;;5096672;28;20162;-51
2020/12/13 03:17:24;;;;;;;2.03;1.80;;;19.60;22.90;;;;;;5096262;28;20160;-52
2020/12/13 03:19:52;;;;;;;2.33;1.80;;;19.60;22.90;;;;;;5096311;28;20162;-52
2020/12/13 03:22:18;;;;;;;1.80;1.42;;;19.60;23.00;;;;;;5095733;28;20162;-51
2020/12/13 03:24:44;;;;;;;1.70;1.53;;;19.60;23.00;;;;;;5096032;28;20576;-51
2020/12/13 03:27:09;;;;;;;1.90;1.67;;;19.60;23.00;;;;;;5077899;28;20158;-52
2020/12/13 03:29:35;;;;;;;2.17;1.97;;;19.60;23.00;;;;;;5095957;28;20155;-52
2020/12/13 03:32:01;;;;;;;1.60;1.50;;;19.60;23.00;;;;;;5077942;28;20416;-52
2020/12/13 03:34:26;;;;;;;1.70;1.60;;;19.60;23.00;;;;;;5096115;28;20249;-52
2020/12/13 03:36:52;;;;;;;1.90;1.57;;;19.60;23.60;;;;;;5095373;28;20207;-52
2020/12/13 03:39:18;;;;;;;1.83;1.70;;;19.60;23.00;;;;;;5077911;28;20162;-52
2020/12/13 03:41:43;;;;;;;1.80;1.70;;;19.60;23.00;;;;;;5077793;28;20173;-52
2020/12/13 03:44:12;;;;;;;1.50;1.40;;;19.60;23.00;;;;;;5095822;28;20154;-52
2020/12/13 03:46:39;;;;;;;1.92;1.75;;;19.60;23.00;;;;;;5078656;28;20596;-52
2020/12/13 03:49:05;;;;;;;2.05;1.35;;;19.60;23.00;;;;;;5095591;28;20170;-51
2020/12/13 03:51:31;;;;;;;2.00;1.90;;;19.60;23.00;;;;;;5095245;28;20166;-52
2020/12/13 03:53:57;;;;;;;1.70;1.60;;;19.60;23.00;;;;;;5095656;28;20623;-52
2020/12/13 03:56:22;;;;;;;1.93;1.73;;;19.60;23.10;;;;;;5095557;28;20162;-52
2020/12/13 03:58:48;;;;;;;1.63;1.53;;;19.60;23.00;;;;;;5095619;28;20178;-52
2020/12/13 04:01:13;;;;;;;1.53;1.30;;;19.60;23.00;;;;;;5077374;28;20193;-51
2020/12/13 04:03:39;;;;;;;1.60;1.50;;;19.60;23.00;;;;;;5060448;28;20547;-52
2020/12/13 04:06:05;;;;;;;2.23;1.90;;;19.60;23.00;;;;;;5094248;28;20541;-51
2020/12/13 04:08:30;;;;;;;1.43;1.33;;;19.60;23.00;;;;;;5095455;28;20158;-51
2020/12/13 04:10:56;;;;;;;2.13;1.70;;;19.60;23.00;;;;;;5076726;28;20176;-52
2020/12/13 04:13:24;;;;;;;2.00;1.67;;;19.60;23.00;;;;;;5077156;28;20158;-52
2020/12/13 04:15:56;;;;;;;1.90;1.80;;;19.60;23.00;;;;;;5095253;28;20186;-52
2020/12/13 04:18:22;;;;;;;2.13;1.55;;;19.60;23.00;;;;;;5095052;28;20166;-52
2020/12/13 04:20:47;;;;;;;1.60;1.50;;;19.60;23.00;;;;;;5094628;28;20184;-52
2020/12/13 04:23:13;;;;;;;2.60;2.10;;;19.60;23.00;;;;;;5095083;28;20165;-52
2020/12/13 04:25:38;;;;;;;2.17;1.87;;;19.60;23.00;;;;;;5076708;28;20198;-52
2020/12/13 04:28:04;;;;;;;2.10;1.80;;;19.60;23.00;;;;;;5094961;28;20522;-52
2020/12/13 04:30:30;;;;;;;1.70;1.60;;;19.60;23.00;;;;;;5076802;28;20202;-51
2020/12/13 04:32:56;;;;;;;1.87;1.77;;;19.60;23.10;;;;;;5094740;28;20248;-52
2020/12/13 04:35:22;;;;;;;1.50;1.40;;;19.60;23.00;;;;;;5094226;28;20218;-51
2020/12/13 04:37:47;;;;;;;2.00;1.80;;;19.60;23.10;;;;;;5094979;28;20245;-51
2020/12/13 04:40:13;;;;;;;1.50;1.40;;;19.60;23.00;;;;;;5094569;28;20162;-51
2020/12/13 04:42:39;;;;;;;1.63;1.53;;;19.60;23.60;;;;;;5060288;28;20176;-51
2020/12/13 04:45:09;;;;;;;1.60;1.50;;;19.60;23.00;;;;;;5076150;28;20217;-51
2020/12/13 04:47:50;;;;;;;1.85;1.50;;;19.60;23.00;;;;;;5094371;28;20154;-52
2020/12/13 04:50:19;;;;;;;1.40;1.30;;;19.60;23.10;;;;;;5093909;28;20478;-52
2020/12/13 04:52:45;;;;;;;2.22;1.50;;;19.60;23.10;;;;;;5094458;28;20154;-52
2020/12/13 04:55:12;;;;;;;1.67;1.48;;;19.60;23.10;;;;;;5094306;28;20166;-52
2020/12/13 04:57:38;;;;;;;1.70;1.50;;;19.60;23.10;;;;;;5059673;28;20625;-51
2020/12/13 05:00:04;;;;;;;1.47;1.37;;;19.60;23.10;;;;;;5094314;28;20170;-51
2020/12/13 05:02:30;;;;;;;1.90;1.70;;;19.60;23.10;;;;;;5094321;28;20205;-52
2020/12/13 05:04:56;;;;;;;2.27;2.03;;;19.50;23.00;;;;;;5094056;28;20440;-51
2020/12/13 05:07:22;;;;;;;1.80;1.70;;;19.50;23.10;;;;;;5093726;28;20154;-52
2020/12/13 05:09:52;;;;;;;2.20;2.00;;;19.50;23.10;;;;;;5094298;28;20142;-52
2020/12/13 05:12:24;;;;;;;2.00;1.75;;;19.60;23.10;;;;;;5093941;28;20276;-51
2020/12/13 05:14:49;;;;;;;1.73;1.63;;;19.60;23.10;;;;;;5094314;28;20162;-51
2020/12/13 05:17:15;;;;;;;1.90;1.70;;;19.50;23.10;;;;;;5093555;28;20514;-51
2020/12/13 05:19:44;;;;;;;1.57;1.23;;;19.60;23.10;;;;;;5094161;28;20185;-51
2020/12/13 05:22:10;;;;;;;1.52;1.38;;;19.50;23.60;;;;;;5093488;28;20475;-51
2020/12/13 05:24:36;;;;;;;1.58;1.48;;;19.60;23.10;;;;;;5094212;28;20198;-51
2020/12/13 05:27:06;;;;;;;2.15;1.95;;;19.60;23.10;;;;;;5093777;28;20158;-51
2020/12/13 05:29:34;;;;;;;1.33;1.23;;;19.50;23.10;;;;;;5094072;28;20158;-51
2020/12/13 05:32:16;;;;;;;1.48;1.38;;;19.60;23.10;;;;;;5093661;28;20188;-51
2020/12/13 05:34:43;;;;;;;1.98;1.65;;;19.50;23.10;;;;;;5076036;28;20635;-51
2020/12/13 05:37:14;;;;;;;1.85;1.75;;;19.50;23.10;;;;;;5093060;28;20191;-51
2020/12/13 05:39:42;;;;;;;1.60;1.35;;;19.50;23.10;;;;;;5093927;28;20153;-51
2020/12/13 05:42:09;;;;;;;1.60;1.50;;;19.50;23.10;;;;;;5093771;28;20154;-51
2020/12/13 05:53:03;;;;;;;1.67;1.58;;;19.50;23.10;;;;;;5094011;28;20223;-51
2020/12/13 05:55:30;;;;;;;2.05;1.88;;;19.60;23.10;;;;;;5093725;28;20180;-51
2020/12/13 05:57:56;;;;;;;1.90;1.80;;;19.50;23.10;;;;;;5093557;28;20201;-51
2020/12/13 06:00:22;;;;;;;1.63;1.53;;;19.60;23.10;;;;;;5093478;28;20605;-51
2020/12/13 06:02:49;;;;;;;1.50;1.40;;;19.60;23.10;;;;;;5075520;28;20199;-51
2020/12/13 06:05:16;;;;;;;1.85;1.40;;;19.50;23.10;;;;;;5092915;28;20416;-51
2020/12/13 06:07:50;;;;;;;1.48;1.38;;;19.50;23.10;;;;;;5075452;28;20162;-51
2020/12/13 06:10:31;;;;;;;1.55;1.45;;;19.50;23.10;;;;;;5093375;28;20150;-50
2020/12/13 06:13:03;;;;;;;1.50;1.40;;;19.50;23.60;;;;;;5093385;28;20201;-51
2020/12/13 06:15:30;;;;;;;1.55;1.45;;;19.50;23.10;;;;;;5093452;28;20648;-52
2020/12/13 06:17:56;;;;;;;1.73;1.40;;;19.60;23.10;;;;;;5093403;28;20250;-51
2020/12/13 06:20:23;;;;;;;1.80;1.70;;;19.50;23.10;;;;;;5092883;28;20173;-51
2020/12/13 06:22:51;;;;;;;1.52;1.42;;;19.50;23.10;;;;;;5093642;28;20182;-52
2020/12/13 06:25:19;;;;;;;1.67;1.58;;;19.50;23.10;;;;;;5093210;28;20196;-52
2020/12/13 06:27:50;;;;;;;1.48;1.17;;;19.50;23.10;;;;;;5094609;28;20150;-53
2020/12/13 06:30:16;;;;;;;1.50;1.38;;;19.50;23.10;;;;;;5097140;28;20153;-52
2020/12/13 06:32:45;;;;;;;1.30;1.20;;;19.50;23.10;;;;;;5079246;28;20161;-53
2020/12/13 06:35:11;;;;;;;1.38;1.27;;;19.60;23.10;;;;;;5097194;28;20158;-53
2020/12/13 06:37:37;;;;;;;1.40;1.30;;;19.50;23.10;;;;;;5096846;28;20169;-51
2020/12/13 06:40:08;;;;;;;1.33;1.23;;;19.50;23.10;;;;;;5097100;28;20662;-52
2020/12/13 06:42:42;;;;;;;1.92;1.83;;;19.60;23.10;;;;;;5097006;28;20158;-51
2020/12/13 06:45:12;;;;;;;1.40;1.25;;;19.50;23.10;;;;;;5096718;28;20656;-51
2020/12/13 06:47:39;;;;;;;1.40;1.30;;;19.60;23.10;;;;;;5096921;28;20202;-51
2020/12/13 06:50:08;;;;;;;1.45;1.35;;;19.50;23.10;;;;;;5061945;28;20528;-52
2020/12/13 06:52:35;;;;;;;1.45;1.35;;;19.50;23.10;;;;;;5096208;28;20239;-51
2020/12/13 06:55:04;;;;;;;1.48;1.38;;;19.50;23.10;;;;;;5078700;28;20180;-51
2020/12/13 06:57:34;;;;;;;2.03;1.48;;;19.50;23.10;;;;;;5096566;28;20182;-51
2020/12/13 07:00:08;;;;;;;1.50;1.40;;;19.50;23.10;;;;;;5078473;28;20194;-52
2020/12/13 07:02:59;;;;;;;1.58;1.48;;;19.50;23.10;;;;;;5096626;28;20166;-52
2020/12/13 07:05:47;;;;;;;1.70;1.40;;;19.50;23.10;;;;;;5096041;28;20255;-52
2020/12/13 07:08:17;;;;;;;1.67;1.50;;;19.50;23.10;;;;;;5096563;28;20146;-52
2020/12/13 07:10:46;;;;;;;2.22;1.65;;;19.50;23.10;;;;;;5096127;28;20157;-53
2020/12/13 07:13:19;;;;;;;2.50;1.65;;;19.60;23.10;;;;;;5096427;28;20524;-52
2020/12/13 07:16:09;;;;;;;1.38;1.27;;;19.60;23.10;;;;;;5096327;28;20157;-52
2020/12/13 07:18:36;;;;;;;1.60;1.50;;;19.50;23.10;;;;;;5096470;28;20184;-52
2020/12/13 07:21:02;;;;;;;1.85;1.30;;;19.50;23.10;;;;;;5095760;28;20169;-52
2020/12/13 07:23:28;;;;;;;1.40;1.30;;;19.50;23.10;;;;;;5096304;28;20154;-52
2020/12/13 07:25:55;;;;;;;1.57;1.47;;;19.50;23.10;;;;;;5096170;28;20197;-52
2020/12/13 07:28:24;;;;;;;1.50;1.40;;;19.50;23.60;;;;;;5096227;28;20831;-52
2020/12/13 07:30:50;;;;;;;1.50;1.40;;;19.50;23.10;;;;;;5096034;28;20147;-52
2020/12/13 07:33:15;;;;;;;2.07;1.87;;;19.50;23.10;;;;;;5096203;28;20169;-52
2020/12/13 07:35:41;;;;;;;1.47;1.20;;;19.50;23.10;;;;;;5095611;28;20158;-53
2020/12/13 07:38:08;;;;;;;1.60;1.50;;;19.50;23.10;;;;;;5095884;28;20173;-51
2020/12/13 07:40:34;;;;;;;1.70;1.60;;;19.50;23.10;;;;;;5095875;28;20154;-51
2020/12/13 07:43:05;;;;;;;1.63;1.53;;;19.50;23.10;;;;;;5095898;28;20164;-52
2020/12/13 07:45:33;;;;;;;1.30;1.20;;;19.50;23.10;;;;;;5095700;28;20901;-52
2020/12/13 07:48:05;;;;;;;1.90;1.70;;;19.50;23.10;;;;;;5095883;28;20146;-51
2020/12/13 07:50:41;;;;;;;1.50;1.40;;;19.50;23.10;;;;;;5095203;28;20200;-52
2020/12/13 07:53:07;;;;;;;1.98;1.88;;;19.50;23.10;;;;;;5095681;28;20232;-52
2020/12/13 07:55:33;;;;;;;1.80;1.70;;;19.50;23.10;;;;;;5095346;28;20197;-51
2020/12/13 07:57:58;;;;;;;1.20;1.10;;;19.50;23.10;;;;;;5057623;28;20195;-52
2020/12/13 08:00:24;;;;;;;1.53;1.43;;;19.50;23.10;;;;;;5075514;28;20190;-52
2020/12/13 08:02:54;;;;;;;1.47;1.37;;;19.50;23.10;;;;;;5075369;28;20219;-52
2020/12/13 08:05:27;;;;;;;1.25;1.15;;;19.50;23.10;;;;;;5074586;28;20314;-52
2020/12/13 08:07:57;;;;;;;1.95;1.75;;;19.50;23.10;;;;;;5075208;28;20201;-52
2020/12/13 08:10:23;;;;;;;1.40;1.27;;;19.50;23.10;;;;;;5075070;28;20174;-53
2020/12/13 08:12:53;;;;;;;1.30;1.20;;;19.50;23.10;;;;;;5057047;28;20304;-51
2020/12/13 08:15:19;;;;;;;1.33;1.13;;;19.50;23.10;;;;;;5074846;28;20605;-52
2020/12/13 08:17:58;;;;;;;1.40;1.30;;;19.50;23.10;;;;;;5057294;28;20174;-53
2020/12/13 08:20:26;;;;;;;1.42;1.33;;;19.50;23.10;;;;;;5074398;28;20162;-52
2020/12/13 08:22:57;;;;;;;1.38;1.27;;;19.50;23.10;;;;;;5074983;28;20483;-53
2020/12/13 08:25:23;;;;;;;1.48;1.38;;;19.50;23.10;;;;;;5074567;28;20201;-54
2020/12/13 08:27:49;;;;;;;1.10;1.00;;;19.50;23.10;;;;;;5074809;28;20173;-52
2020/12/13 08:30:18;;;;;;;1.43;1.33;;;19.50;23.10;;;;;;5074462;28;20151;-53
2020/12/13 08:32:45;;;;;;;1.50;1.35;;;19.50;23.10;;;;;;5074762;28;20159;-52
2020/12/13 08:35:15;;;;;;;1.50;1.40;;;19.50;23.10;;;;;;5074648;28;20169;-51
2020/12/13 08:37:51;;;;;;;1.40;1.30;;;19.50;23.10;;;;;;5074679;28;20602;-51
2020/12/13 08:40:17;;;;;;;1.23;1.13;;;19.50;23.10;;;;;;5074273;28;20208;-52
2020/12/13 08:42:44;;;;;;;1.33;1.13;;;19.50;23.10;;;;;;5074422;28;20162;-51
2020/12/13 08:45:10;;;;;;;1.30;1.20;;;19.50;23.10;;;;;;5056617;28;20669;-52
2020/12/13 08:47:35;;;;;;;1.40;1.30;;;19.50;23.10;;;;;;5074417;28;20193;-52
2020/12/13 08:50:02;;;;;;;2.13;1.47;;;19.50;23.10;;;;;;5073852;28;20154;-52
2020/12/13 08:52:34;;;;;;;1.40;1.23;;;19.50;23.10;;;;;;5073707;28;20547;-52
2020/12/13 08:55:04;;;;;;;1.63;1.52;;;19.50;23.10;;;;;;5039475;28;20565;-52
2020/12/13 08:57:35;;;;;;;1.33;1.23;;;19.50;23.10;;;;;;5077748;28;20177;-52
2020/12/13 09:00:06;;;;;;;1.50;1.40;;;19.60;23.10;;;;;;5094500;28;20154;-52
2020/12/13 09:02:32;;;;;;;1.20;1.10;;;19.60;23.10;;;;;;5094336;28;20146;-52
2020/12/13 09:04:58;;;;;;;1.30;1.20;;;19.60;23.00;;;;;;5094147;28;20189;-52
2020/12/13 09:07:31;;;;;;;1.48;1.10;;;19.60;23.10;;;;;;5093736;28;20166;-52
2020/12/13 09:10:13;;;;;;;1.63;1.52;;;19.60;23.00;;;;;;5094032;28;20146;-52
2020/12/13 09:12:41;;;;;;;1.30;1.08;;;19.60;23.60;;;;;;5094174;28;20205;-51
2020/12/13 09:15:14;;;;;;;1.20;1.10;;;19.60;23.00;;;;;;5094184;28;20178;-51
2020/12/13 09:17:40;;;;;;;1.45;1.35;;;19.60;23.00;;;;;;5094160;28;20158;-51
2020/12/13 09:20:08;;;;;;;1.67;1.58;;;19.60;23.00;;;;;;5094018;28;20158;-51
2020/12/13 09:22:34;;;;;;;1.30;1.20;;;19.60;23.00;;;;;;5093423;28;20158;-51
2020/12/13 09:25:00;;;;;;;1.17;1.07;;;19.60;23.00;;;;;;5093973;28;20667;-51
2020/12/13 09:27:29;;;;;;;1.40;1.23;;;19.60;23.00;;;;;;5093807;28;20858;-52
2020/12/13 09:29:56;;;;;;;1.45;1.35;;;19.60;23.00;;;;;;5093867;28;20166;-52
2020/12/13 09:32:22;;;;;;;1.73;1.40;;;19.60;23.00;;;;;;5093873;28;20146;-51
2020/12/13 09:34:48;;;;;;;1.10;1.00;;;19.60;22.90;;;;;;5075685;28;20166;-51
2020/12/13 09:37:19;;;;;;;1.65;1.20;;;19.60;22.90;;;;;;5093185;28;20450;-52
2020/12/13 09:39:45;;;;;;;1.20;1.10;;;19.60;22.90;;;;;;5094014;28;20165;-52
2020/12/13 09:42:12;;;;;;;1.30;1.20;;;19.60;22.90;;;;;;5093902;28;20166;-52
2020/12/13 09:44:38;;;;;;;1.20;1.10;;;19.60;22.90;;;;;;5093657;28;20189;-51
2020/12/13 09:47:04;;;;;;;1.38;1.27;;;19.60;22.80;;;;;;5093618;28;20160;-52
2020/12/13 09:49:31;;;;;;;1.48;1.38;;;19.60;22.80;;;;;;5093896;28;20157;-52
2020/12/13 09:51:57;;;;;;;2.13;1.75;;;19.60;22.80;;;;;;5093086;28;20166;-52
2020/12/13 09:54:23;;;;;;;1.40;1.30;;;19.60;22.80;;;;;;5075590;28;20169;-51
2020/12/13 09:56:49;;;;;;;1.13;1.02;;;19.60;22.80;;;;;;5093581;28;20162;-51
2020/12/13 09:59:15;;;;;;;1.40;1.30;;;19.70;22.80;;;;;;5093475;28;20276;-51
2020/12/13 10:01:40;;;;;;;1.37;1.27;;;19.70;22.80;;;;;;5093521;28;20154;-51
2020/12/13 10:04:06;;;;;;;1.33;1.23;;;19.70;22.80;;;;;;5097018;28;20169;-52
2020/12/13 10:11:29;;;;;;;1.40;1.30;;;19.70;22.70;;;;;;5096953;28;20209;-52
2020/12/13 10:13:56;;;;;;;1.15;1.00;;;19.70;22.70;;;;;;5078046;28;20184;-52
2020/12/13 10:16:26;;;;;;;1.60;1.50;;;19.80;22.70;;;;;;5077918;28;20244;-52
2020/12/13 10:18:52;;;;;;;1.15;1.05;;;19.70;22.70;;;;;;5096494;28;20153;-52
2020/12/13 10:21:23;;;;;;;1.73;1.60;;;19.70;22.70;;;;;;5077227;28;20251;-51
2020/12/13 10:23:48;;;;;;;1.15;1.00;;;19.70;22.70;;;;;;5096090;28;20200;-52
2020/12/13 10:26:14;;;;;;;1.50;1.40;;;19.70;22.70;;;;;;5095898;28;20525;-53
2020/12/13 10:28:40;;;;;;;1.40;1.30;;;19.70;22.70;;;;;;5096100;28;20219;-52
2020/12/13 10:31:10;;;;;;;1.30;1.20;;;19.70;22.70;;;;;;5095777;28;20509;-52
2020/12/13 10:33:39;;;;;;;1.40;1.30;;;19.70;22.70;;;;;;5096040;28;20195;-52
2020/12/13 10:36:06;;;;;;;1.40;1.30;;;19.70;22.70;;;;;;5095196;28;20180;-52
2020/12/13 10:38:32;;;;;;;1.65;1.40;;;19.70;22.60;;;;;;5061163;28;20653;-52
2020/12/13 10:40:57;;;;;;;1.50;1.07;;;19.80;22.70;;;;;;5095569;28;20186;-52
2020/12/13 10:43:23;;;;;;;1.23;1.10;;;19.80;22.70;;;;;;5095905;28;20169;-52
2020/12/13 10:45:49;;;;;;;1.30;1.20;;;19.80;22.70;;;;;;5077358;28;20222;-52
2020/12/13 10:48:14;;;;;;;1.27;1.17;;;19.80;22.60;;;;;;5095697;28;20190;-52
2020/12/13 10:50:41;;;;;;;1.70;1.60;;;19.80;22.50;;;;;;5095107;28;20590;-52
2020/12/13 10:53:07;;;;;;;1.35;1.25;;;19.80;22.50;;;;;;5095698;28;20162;-53
2020/12/13 10:55:32;;;;;;;1.30;1.20;;;19.90;22.50;;;;;;5077884;28;20251;-52
2020/12/13 10:57:58;;;;;;;1.00;1.00;;;19.90;22.50;;;;;;5095579;28;20529;-52
2020/12/13 11:00:24;;;;;;;1.20;1.10;;;19.90;22.40;;;;;;5095502;28;20219;-52
2020/12/13 11:02:50;;;;;;;1.17;1.07;;;19.90;22.40;;;;;;5095687;28;20154;-52
2020/12/13 11:05:17;;;;;;;1.20;1.10;;;19.90;22.40;;;;;;5094791;28;20534;-52
2020/12/13 11:07:42;;;;;;;1.60;1.38;;;19.90;22.90;;;;;;5077590;28;20237;-52
2020/12/13 11:10:08;;;;;;;1.33;1.23;;;19.90;22.40;;;;;;5095387;28;20234;-53
2020/12/13 11:12:34;;;;;;;1.23;1.13;;;19.90;22.30;;;;;;5039445;28;625069;-50
2020/12/13 11:14:59;;;;;;;1.10;1.00;;;19.90;22.40;;;;;;5096108;28;20703;-52
2020/12/13 11:17:28;;;;;;;1.50;1.40;;;19.90;22.40;;;;;;5096480;28;20558;-52
2020/12/13 11:19:53;;;;;;;2.10;1.35;;;19.90;22.40;;;;;;5077959;28;20197;-52
2020/12/13 11:22:19;;;;;;;1.20;1.10;;;19.90;22.40;;;;;;5095704;28;20208;-53
2020/12/13 11:24:45;;;;;;;1.40;1.30;;;19.90;22.40;;;;;;5078278;28;20197;-52
2020/12/13 11:27:10;;;;;;;1.50;1.10;;;19.90;22.50;;;;;;5096083;28;20233;-52
2020/12/13 11:29:36;;;;;;;1.33;1.23;;;19.80;22.40;;;;;;5096248;28;20465;-52
2020/12/13 11:32:02;;;;;;;1.73;1.40;;;19.80;22.50;;;;;;5096100;28;20308;-52
2020/12/13 11:34:28;;;;;;;1.23;1.13;;;19.80;22.50;;;;;;5094155;28;20434;-52
2020/12/13 11:36:54;;;;;;;1.13;1.03;;;19.80;22.60;;;;;;5095437;28;20202;-52
2020/12/13 11:39:19;;;;;;;1.30;1.20;;;19.80;22.60;;;;;;5095992;28;20186;-52
2020/12/13 11:41:45;;;;;;;1.87;1.33;;;19.70;22.60;;;;;;5094238;28;20443;-52
2020/12/13 11:44:11;;;;;;;1.40;1.27;;;19.80;22.70;;;;;;5095677;28;20226;-52
2020/12/13 11:46:36;;;;;;;1.30;1.20;;;19.70;22.60;;;;;;5094437;28;20197;-52
2020/12/13 11:49:02;;;;;;;1.70;1.60;;;19.70;22.60;;;;;;5095695;28;20165;-51
2020/12/13 11:51:28;;;;;;;1.50;1.40;;;19.70;22.70;;;;;;5095218;28;20237;-51
2020/12/13 11:53:53;;;;;;;1.70;1.60;;;19.70;23.20;;;;;;5094438;28;20640;-52
2020/12/13 11:56:23;;;;;;;1.43;1.33;;;19.70;22.70;;;;;;5094235;28;20215;-52
2020/12/13 11:58:49;;;;;;;1.77;1.50;;;19.70;22.70;;;;;;5082970;28;20170;-52
2020/12/13 12:01:19;;;;;;;1.40;1.30;;;19.70;22.80;;;;;;5095374;28;20582;-52
2020/12/13 12:03:45;;;;;;;1.80;1.40;;;19.70;22.80;;;;;;5095472;28;20209;-53
2020/12/13 12:06:13;;;;;;;1.77;1.60;;;19.70;22.80;;;;;;5076724;28;20201;-52
2020/12/13 12:08:42;;;;;;;2.03;1.92;;;19.60;23.30;;;;;;5095654;28;20158;-52
2020/12/13 12:11:08;;;;;;;1.35;1.25;;;19.60;22.70;;;;;;5095114;28;20213;-53
2020/12/13 12:13:37;;;;;;;1.50;1.30;;;19.60;22.80;;;;;;5077286;28;20170;-52
2020/12/13 12:16:03;;;;;;;1.88;1.75;;;19.60;22.80;;;;;;5095021;28;20158;-53
2020/12/13 12:18:29;;;;;;;1.73;1.63;;;19.60;22.80;;;;;;5076997;28;20166;-52
2020/12/13 12:20:55;;;;;;;1.95;1.50;;;19.60;22.80;;;;;;5076339;28;20169;-52
2020/12/13 12:23:21;;;;;;;1.50;1.40;;;19.60;22.80;;;;;;5077291;28;20162;-52
2020/12/13 12:25:50;;;;;;;1.90;1.33;;;19.60;23.30;;;;;;5094008;28;20181;-52
2020/12/13 12:28:16;;;;;;;1.60;1.50;;;19.60;22.80;;;;;;5095079;28;20181;-51
2020/12/13 12:30:43;;;;;;;2.17;1.90;;;19.60;22.80;;;;;;5095125;28;20182;-52
2020/12/13 12:33:10;;;;;;;2.67;1.70;;;19.60;22.80;;;;;;5094771;28;20409;-51
2020/12/13 12:35:35;;;;;;;2.35;1.73;;;19.60;22.80;;;;;;5094182;28;20154;-52
2020/12/13 12:38:01;;;;;;;1.70;1.43;;;19.60;22.80;;;;;;5094843;28;20629;-52
2020/12/13 12:40:26;;;;;;;1.93;1.83;;;19.60;22.70;;;;;;5094682;28;20521;-51
2020/12/13 12:42:55;;;;;;;2.33;2.13;;;19.60;22.80;;;;;;5094801;28;20516;-52
2020/12/13 12:45:24;;;;;;;3.38;1.95;;;19.60;22.70;;;;;;5094437;28;20511;-52
2020/12/13 12:47:50;;;;;;;1.95;1.60;;;19.70;22.80;;;;;;5094715;28;20610;-52
2020/12/13 12:50:15;;;;;;;1.40;1.30;;;19.60;22.70;;;;;;5093900;28;20203;-52
2020/12/13 12:52:44;;;;;;;2.77;1.90;;;19.60;22.70;;;;;;5094697;28;20161;-52
2020/12/13 12:55:10;;;;;;;1.67;1.58;;;19.60;22.80;;;;;;5094557;28;20887;-51
2020/12/13 12:57:35;;;;;;;1.93;1.83;;;19.60;22.80;;;;;;5094702;28;20158;-52
2020/12/13 13:02:49;;;;;;;1.60;1.40;;;19.70;22.80;;;;;;5079660;28;20176;-52
2020/12/13 13:05:22;;;;;;;1.88;1.77;;;19.60;22.80;;;;;;5093777;28;20280;-52
2020/12/13 13:07:48;;;;;;;2.40;1.77;;;19.60;22.80;;;;;;5077405;28;20195;-52